Time;durP1;ratioP1;P1;durP2;ratioP2;P2;SDS_P1;SDS_P2;PMS_P1;PMS_P2;Temp;Humidity;BMP_temperature;BMP_pressure;BME280_temperature;BME280_humidity;BME280_pressure;Samples;Min_cycle;Max_cycle;Signal;HPM_P1;HPM_P2
2021/12/04 00:02:09;;;;;;;173.35;135.23;;;22.70;45.00;;;;;;4838959;54;21597;-22
2021/12/04 00:07:10;;;;;;;170.27;132.77;;;22.70;45.00;;;;;;4802850;54;21040;-23
2021/12/04 00:12:12;;;;;;;172.62;134.07;;;22.70;45.00;;;;;;4802662;54;21072;-17
2021/12/04 00:17:13;;;;;;;167.85;131.50;;;22.60;44.90;;;;;;4828078;54;21008;-25
2021/12/04 00:22:14;;;;;;;171.02;131.52;;;22.60;44.80;;;;;;4835257;54;21008;-25
2021/12/04 00:27:15;;;;;;;173.05;135.02;;;22.60;44.80;;;;;;4802929;54;21087;-24
2021/12/04 00:32:27;;;;;;;167.27;129.27;;;22.60;44.70;;;;;;4795214;55;21584;-25
2021/12/04 00:37:46;;;;;;;165.15;128.60;;;22.70;44.80;;;;;;4838314;54;21652;-22
2021/12/04 00:53:26;;;;;;;157.40;122.93;;;22.60;44.50;;;;;;4794255;54;21040;-23
2021/12/04 00:58:27;;;;;;;157.15;123.80;;;22.60;44.60;;;;;;4821074;54;21530;-25
2021/12/04 01:03:28;;;;;;;154.52;126.18;;;22.60;44.60;;;;;;4800684;54;21138;-25
2021/12/04 01:08:28;;;;;;;153.02;121.50;;;22.60;44.50;;;;;;4860753;54;21028;-26
2021/12/04 01:13:30;;;;;;;157.27;122.57;;;22.60;44.50;;;;;;4795437;54;21008;-26
2021/12/04 01:18:31;;;;;;;149.62;119.47;;;22.60;44.50;;;;;;4857194;54;21060;-26
2021/12/04 01:23:34;;;;;;;151.68;118.65;;;22.60;44.50;;;;;;4795264;58;21012;-23
2021/12/04 01:28:35;;;;;;;148.02;117.90;;;22.60;44.40;;;;;;4822197;54;21072;-26
2021/12/04 01:33:36;;;;;;;148.75;116.88;;;22.60;44.40;;;;;;4798124;54;21501;-24
2021/12/04 01:38:37;;;;;;;148.30;116.37;;;22.60;44.30;;;;;;4794570;58;21032;-25
2021/12/04 01:43:38;;;;;;;145.07;113.03;;;22.50;44.30;;;;;;4799476;54;21060;-24
2021/12/04 01:48:40;;;;;;;146.02;114.18;;;22.50;44.30;;;;;;4795799;54;21009;-25
2021/12/04 01:53:40;;;;;;;144.30;114.88;;;22.50;44.20;;;;;;4799171;54;21083;-26
2021/12/04 01:58:43;;;;;;;140.75;112.60;;;22.50;44.20;;;;;;4825567;54;21645;-27
2021/12/04 02:03:44;;;;;;;137.55;108.78;;;22.60;44.20;;;;;;4807563;54;21011;-24
2021/12/04 02:08:45;;;;;;;140.45;111.60;;;22.50;44.10;;;;;;4799300;54;21079;-25
2021/12/04 02:13:46;;;;;;;137.60;106.53;;;22.50;44.10;;;;;;4820253;54;21028;-25
2021/12/04 02:18:47;;;;;;;138.37;109.07;;;22.50;44.10;;;;;;4799758;54;21000;-27
2021/12/04 02:23:48;;;;;;;135.25;105.85;;;22.50;44.00;;;;;;4825264;54;21068;-25
2021/12/04 02:28:48;;;;;;;130.32;102.57;;;22.50;44.00;;;;;;4817409;54;20988;-22
2021/12/04 02:33:49;;;;;;;128.62;102.93;;;22.50;44.00;;;;;;4808868;54;21016;-26
2021/12/04 02:38:53;;;;;;;125.93;100.65;;;22.50;44.00;;;;;;4794727;58;21506;-25
2021/12/04 02:43:54;;;;;;;131.25;102.65;;;22.50;44.00;;;;;;4797224;54;21506;-26
2021/12/04 02:48:55;;;;;;;125.82;101.10;;;22.50;43.90;;;;;;4825400;54;21107;-25
2021/12/04 02:53:56;;;;;;;124.70;97.85;;;22.50;43.80;;;;;;4843880;54;21023;-26
2021/12/04 02:59:01;;;;;;;124.80;99.62;;;22.50;43.80;;;;;;4797783;54;21489;-25
2021/12/04 03:04:11;;;;;;;122.43;97.53;;;22.50;43.80;;;;;;4799269;54;21458;-23
2021/12/04 03:09:14;;;;;;;117.95;93.37;;;22.50;43.90;;;;;;4803887;54;21509;-24
2021/12/04 03:14:17;;;;;;;119.80;94.57;;;22.50;44.40;;;;;;4819722;54;21037;-21
2021/12/04 03:19:18;;;;;;;118.93;94.68;;;22.50;43.70;;;;;;4805520;54;21526;-24
2021/12/04 03:24:20;;;;;;;118.15;92.65;;;22.50;43.70;;;;;;4842874;54;21518;-23
2021/12/04 03:29:23;;;;;;;114.03;89.22;;;22.40;43.60;;;;;;4795383;58;21493;-25
2021/12/04 03:45:05;;;;;;;111.57;87.37;;;22.40;43.60;;;;;;4795229;54;21659;-25
2021/12/04 03:50:07;;;;;;;109.03;87.25;;;22.40;43.50;;;;;;4808238;54;21581;-24
2021/12/04 03:55:10;;;;;;;109.15;86.35;;;22.40;43.50;;;;;;4814405;54;20976;-24
2021/12/04 04:00:15;;;;;;;100.97;81.78;;;22.40;43.40;;;;;;4802284;54;21039;-25
2021/12/04 04:05:16;;;;;;;99.05;80.38;;;22.40;43.60;;;;;;4831021;54;21063;-24
2021/12/04 04:10:17;;;;;;;103.25;81.70;;;22.40;43.50;;;;;;4820316;54;21045;-20
2021/12/04 04:15:20;;;;;;;99.43;79.50;;;22.40;43.40;;;;;;4798786;54;21011;-27
2021/12/04 04:20:22;;;;;;;100.65;79.75;;;22.40;43.50;;;;;;4822040;54;21051;-25
2021/12/04 04:25:23;;;;;;;102.72;80.65;;;22.40;43.30;;;;;;4808750;54;21004;-25
2021/12/04 04:30:27;;;;;;;101.53;79.53;;;22.40;43.40;;;;;;4796480;54;21043;-27
2021/12/04 04:35:28;;;;;;;95.85;77.05;;;22.40;43.30;;;;;;4807006;54;21055;-20
2021/12/04 05:02:40;;;;;;;92.07;74.10;;;22.40;43.30;;;;;;4809249;54;21518;-27
2021/12/04 05:13:17;;;;;;;91.00;70.97;;;22.30;43.30;;;;;;4812558;54;21099;-24
2021/12/04 05:24:20;;;;;;;89.07;69.65;;;22.40;43.40;;;;;;4838176;54;20103;-26
2021/12/04 05:29:21;;;;;;;84.32;67.70;;;22.40;43.30;;;;;;4803293;54;21103;-27
2021/12/04 05:34:22;;;;;;;78.85;63.90;;;22.40;43.40;;;;;;4817567;54;21067;-21
2021/12/04 05:39:24;;;;;;;84.78;66.37;;;22.40;43.40;;;;;;4816953;54;21099;-24
2021/12/04 05:44:26;;;;;;;81.15;65.87;;;22.40;43.40;;;;;;4815350;54;21040;-21
2021/12/04 05:49:36;;;;;;;82.30;64.15;;;22.30;43.40;;;;;;4819199;54;21578;-25
2021/12/04 05:59:57;;;;;;;78.32;62.42;;;22.30;43.40;;;;;;4822807;54;21063;-24
2021/12/04 06:04:58;;;;;;;79.55;62.92;;;22.30;43.40;;;;;;4799247;54;21449;-25
2021/12/04 06:09:59;;;;;;;74.53;60.72;;;22.30;43.40;;;;;;4796018;54;21020;-26
2021/12/04 06:15:00;;;;;;;73.53;59.53;;;22.30;43.40;;;;;;4796946;54;21012;-24
2021/12/04 06:25:24;;;;;;;73.65;58.55;;;22.30;43.60;;;;;;4809989;54;21043;-26
2021/12/04 06:30:26;;;;;;;72.82;57.55;;;22.30;43.50;;;;;;4794694;58;21824;-22
2021/12/04 06:35:26;;;;;;;72.60;56.85;;;22.30;43.40;;;;;;4795087;58;21462;-23
2021/12/04 06:40:27;;;;;;;71.72;58.03;;;22.30;43.40;;;;;;4831268;54;21055;-24
2021/12/04 06:45:30;;;;;;;69.75;55.97;;;22.30;43.40;;;;;;4810808;54;21841;-24
2021/12/04 06:50:41;;;;;;;70.37;56.40;;;22.30;43.40;;;;;;4811448;54;21581;-25
2021/12/04 06:55:46;;;;;;;70.07;56.47;;;22.30;43.40;;;;;;4803055;54;21502;-23
2021/12/04 07:00:48;;;;;;;69.43;55.55;;;22.30;43.40;;;;;;4794815;56;21486;-23
2021/12/04 07:05:49;;;;;;;66.62;53.83;;;22.30;43.40;;;;;;4815770;54;21012;-26
2021/12/04 07:10:53;;;;;;;69.43;54.60;;;22.30;43.40;;;;;;4795135;55;21046;-30
2021/12/04 07:16:01;;;;;;;68.28;55.45;;;22.30;43.30;;;;;;4795170;54;21587;-26
2021/12/04 07:21:02;;;;;;;69.15;54.65;;;22.30;43.30;;;;;;4827841;54;21458;-27
2021/12/04 07:26:04;;;;;;;67.22;54.25;;;22.30;43.30;;;;;;4865022;54;21079;-23
2021/12/04 07:31:05;;;;;;;66.97;53.80;;;22.30;43.30;;;;;;4866017;54;21039;-25
2021/12/04 07:36:06;;;;;;;63.60;51.45;;;22.30;43.30;;;;;;4827269;54;20992;-21
2021/12/04 07:41:10;;;;;;;68.43;54.35;;;22.30;43.20;;;;;;4829128;54;20988;-27
2021/12/04 07:46:11;;;;;;;70.57;54.75;;;22.30;43.30;;;;;;4795109;58;21510;-25
2021/12/04 07:51:17;;;;;;;68.50;54.17;;;22.30;43.30;;;;;;4793942;58;21016;-27
2021/12/04 07:56:18;;;;;;;70.72;56.28;;;22.30;43.30;;;;;;4808572;54;21558;-21
2021/12/04 08:01:18;;;;;;;69.80;55.67;;;22.20;43.30;;;;;;4809140;54;20984;-24
2021/12/04 08:06:19;;;;;;;73.65;57.58;;;22.20;43.20;;;;;;4795551;58;21019;-26
2021/12/04 08:11:20;;;;;;;67.75;54.60;;;22.30;43.20;;;;;;4853252;54;21135;-25
2021/12/04 08:16:24;;;;;;;68.35;55.38;;;22.20;43.20;;;;;;4818526;54;21012;-22
2021/12/04 08:21:26;;;;;;;71.22;56.90;;;22.20;43.10;;;;;;4822014;54;21501;-26
2021/12/04 08:26:27;;;;;;;71.32;56.97;;;22.30;43.20;;;;;;4834790;54;21006;-25
2021/12/04 08:31:28;;;;;;;73.30;57.75;;;22.30;43.10;;;;;;4805296;54;21455;-26
2021/12/04 08:36:32;;;;;;;71.70;57.88;;;22.20;43.00;;;;;;4823007;54;21095;-27
2021/12/04 08:41:33;;;;;;;74.12;58.35;;;22.20;43.10;;;;;;4795241;58;21537;-27
2021/12/04 08:46:35;;;;;;;75.03;59.22;;;22.30;43.20;;;;;;4835058;54;20995;-26
2021/12/04 08:51:36;;;;;;;71.00;56.65;;;22.20;43.00;;;;;;4795877;55;21561;-26
2021/12/04 08:56:38;;;;;;;77.57;61.65;;;22.20;43.10;;;;;;4794758;58;21020;-26
2021/12/04 09:01:43;;;;;;;75.50;60.53;;;22.30;43.10;;;;;;4797678;54;20996;-26
2021/12/04 09:06:44;;;;;;;77.62;60.92;;;22.30;43.10;;;;;;4808119;54;21000;-26
2021/12/04 09:11:53;;;;;;;76.37;60.70;;;22.30;43.10;;;;;;4824067;54;21024;-25
2021/12/04 09:16:57;;;;;;;79.78;63.63;;;22.20;43.10;;;;;;4802414;54;21004;-27
2021/12/04 09:21:58;;;;;;;81.80;64.65;;;22.30;43.20;;;;;;4799246;54;21075;-25
2021/12/04 09:27:35;;;;;;;83.25;65.90;;;22.30;43.20;;;;;;4819534;54;21509;-25
2021/12/04 09:33:26;;;;;;;82.90;65.30;;;22.30;43.20;;;;;;4802309;54;21510;-28
2021/12/04 10:37:56;;;;;;;99.62;80.00;;;22.30;43.40;;;;;;4794623;58;21162;-24
2021/12/04 10:43:00;;;;;;;101.93;80.70;;;22.30;43.30;;;;;;4821580;54;21052;-22
2021/12/04 10:48:07;;;;;;;102.50;82.03;;;22.30;43.30;;;;;;4830760;54;21486;-24
2021/12/04 10:53:13;;;;;;;101.03;80.53;;;22.30;43.30;;;;;;4807934;54;21498;-26
2021/12/04 11:23:53;;;;;;;103.40;81.87;;;22.30;43.40;;;;;;4796406;54;21056;-28
2021/12/04 11:46:13;;;;;;;106.63;81.82;;;22.40;43.60;;;;;;4806771;54;21418;-22
2021/12/04 11:51:24;;;;;;;108.57;83.50;;;22.50;44.10;;;;;;4809305;54;21533;-26
2021/12/04 11:56:28;;;;;;;165.85;126.30;;;22.60;45.50;;;;;;4815006;54;21004;-26
2021/12/04 12:01:32;;;;;;;287.67;241.55;;;22.60;42.10;;;;;;4841803;54;21003;-26
2021/12/04 12:06:41;;;;;;;293.42;247.82;;;22.60;41.80;;;;;;4802718;54;21592;-26
2021/12/04 12:12:31;;;;;;;245.45;204.68;;;22.50;40.10;;;;;;4810518;54;21113;-27
2021/12/04 12:17:40;;;;;;;467.90;416.58;;;22.50;40.10;;;;;;4794392;58;21067;-27
2021/12/04 12:22:50;;;;;;;648.70;582.40;;;22.60;39.60;;;;;;4827018;54;21505;-32
2021/12/04 12:31:48;;;;;;;434.42;382.83;;;22.60;39.60;;;;;;4809318;54;21478;-30
2021/12/04 12:36:49;;;;;;;319.92;270.75;;;22.60;39.50;;;;;;4832088;54;21091;-26
2021/12/04 12:41:50;;;;;;;690.22;617.70;;;22.60;38.90;;;;;;4827107;54;21016;-31
2021/12/04 12:47:16;;;;;;;394.05;332.40;;;22.60;39.70;;;;;;4802554;54;21074;-26
2021/12/04 12:52:27;;;;;;;297.37;243.98;;;22.60;39.90;;;;;;4808695;54;21044;-26
2021/12/04 12:57:31;;;;;;;298.15;241.93;;;22.60;40.80;;;;;;4835829;54;21087;-28
2021/12/04 13:13:56;;;;;;;428.90;363.50;;;22.50;41.00;;;;;;4793246;54;21136;-31
2021/12/04 13:19:02;;;;;;;351.02;285.98;;;22.50;41.90;;;;;;4798395;54;21004;-27
2021/12/04 13:24:04;;;;;;;334.00;270.73;;;22.60;40.60;;;;;;4817382;54;21526;-29
2021/12/04 13:29:09;;;;;;;318.08;262.90;;;22.50;40.30;;;;;;4822400;54;21071;-27
2021/12/04 13:34:13;;;;;;;317.05;261.23;;;22.50;40.40;;;;;;4791107;54;21075;-28
2021/12/04 13:39:16;;;;;;;317.02;262.55;;;22.50;40.60;;;;;;4810627;54;21118;-27
2021/12/04 13:44:21;;;;;;;308.87;253.20;;;22.40;40.70;;;;;;4809828;54;21027;-33
2021/12/04 13:49:31;;;;;;;315.10;259.52;;;22.40;40.80;;;;;;4833090;54;21027;-28
2021/12/04 13:54:35;;;;;;;307.85;256.42;;;22.40;41.00;;;;;;4817434;54;21608;-29
2021/12/04 13:59:36;;;;;;;303.80;252.35;;;22.40;41.10;;;;;;4811946;54;21019;-28
2021/12/04 14:04:37;;;;;;;294.95;248.38;;;22.40;41.30;;;;;;4812825;54;21027;-34
2021/12/04 14:09:39;;;;;;;300.73;252.00;;;22.40;41.40;;;;;;4809436;54;21644;-30
2021/12/04 14:14:40;;;;;;;293.15;249.77;;;22.40;41.40;;;;;;4794488;58;21035;-32
2021/12/04 14:19:42;;;;;;;294.75;246.93;;;22.40;41.60;;;;;;4806922;54;21101;-27
2021/12/04 14:24:57;;;;;;;288.37;241.25;;;22.40;41.60;;;;;;4825869;54;21103;-29
2021/12/04 14:30:00;;;;;;;287.40;240.85;;;22.40;41.70;;;;;;4827182;54;21087;-31
2021/12/04 14:35:05;;;;;;;291.98;240.95;;;22.30;41.70;;;;;;4795744;58;21099;-28
2021/12/04 14:40:08;;;;;;;285.92;243.40;;;22.30;41.80;;;;;;4799006;54;21095;-30
2021/12/04 14:45:26;;;;;;;285.33;239.70;;;22.30;41.90;;;;;;4801091;54;21148;-32
2021/12/04 14:50:27;;;;;;;277.20;232.75;;;22.30;41.90;;;;;;4822252;54;21537;-31
2021/12/04 14:55:32;;;;;;;290.35;243.88;;;22.30;42.00;;;;;;4815099;54;21067;-30
2021/12/04 15:00:37;;;;;;;281.77;236.55;;;22.30;42.10;;;;;;4794363;58;21059;-34
2021/12/04 15:05:41;;;;;;;266.38;222.40;;;22.30;42.30;;;;;;4800340;54;21601;-32
2021/12/04 15:10:47;;;;;;;266.63;227.32;;;22.30;42.30;;;;;;4794370;55;21513;-28
2021/12/04 15:15:51;;;;;;;274.65;232.68;;;22.30;42.30;;;;;;4839567;54;21055;-29
2021/12/04 15:20:58;;;;;;;262.58;226.60;;;22.30;42.30;;;;;;4795419;58;21071;-27
2021/12/04 15:26:06;;;;;;;276.70;234.32;;;22.30;42.30;;;;;;4814553;54;22150;-27
2021/12/04 15:31:06;;;;;;;274.92;229.87;;;22.30;42.40;;;;;;4801912;54;21096;-31
2021/12/04 15:36:19;;;;;;;267.05;226.65;;;22.30;42.50;;;;;;4828734;54;21183;-31
2021/12/04 15:55:06;;;;;;;273.83;228.43;;;22.30;42.60;;;;;;4794275;54;21656;-35
2021/12/04 16:00:12;;;;;;;275.55;232.68;;;22.30;42.60;;;;;;4877940;54;21628;-33
2021/12/04 16:05:18;;;;;;;269.70;225.65;;;22.30;42.70;;;;;;4797315;54;20988;-27
2021/12/04 16:10:22;;;;;;;268.67;222.98;;;22.30;42.70;;;;;;4834518;54;21533;-28
2021/12/04 16:15:26;;;;;;;261.85;220.82;;;22.30;42.70;;;;;;4812218;54;21973;-33
2021/12/04 16:20:30;;;;;;;266.25;224.73;;;22.30;42.70;;;;;;4835048;54;20996;-27
2021/12/04 16:25:37;;;;;;;263.58;222.30;;;22.30;42.70;;;;;;4794854;58;21493;-34
2021/12/04 16:30:51;;;;;;;251.65;208.65;;;22.30;42.80;;;;;;4819455;54;21505;-32
2021/12/04 16:36:20;;;;;;;258.75;214.50;;;22.30;42.90;;;;;;4849257;54;21498;-26
2021/12/04 16:41:21;;;;;;;245.18;205.85;;;22.30;42.90;;;;;;4822014;54;21574;-32
2021/12/04 16:46:25;;;;;;;257.30;213.15;;;22.30;42.90;;;;;;4828501;54;21596;-31
2021/12/04 17:03:45;;;;;;;253.37;215.27;;;22.30;43.00;;;;;;4834208;54;21545;-31
2021/12/04 17:08:47;;;;;;;256.20;214.52;;;22.30;43.00;;;;;;4806617;54;21359;-29
2021/12/04 17:13:48;;;;;;;262.10;216.88;;;22.30;43.00;;;;;;4793930;58;21093;-30
2021/12/04 17:18:51;;;;;;;256.05;213.18;;;22.30;43.00;;;;;;4803550;54;21561;-27
2021/12/04 17:23:55;;;;;;;256.85;213.70;;;22.30;43.10;;;;;;4817229;54;21505;-33
2021/12/04 17:28:56;;;;;;;264.42;216.55;;;22.30;43.10;;;;;;4816485;54;21002;-32
2021/12/04 17:34:00;;;;;;;247.75;205.62;;;22.20;43.00;;;;;;4804017;54;21064;-27
2021/12/04 17:39:03;;;;;;;254.38;210.50;;;22.30;43.10;;;;;;4818631;54;21549;-28
2021/12/04 17:44:09;;;;;;;241.60;203.95;;;22.20;43.00;;;;;;4825652;54;21071;-29
2021/12/04 17:49:11;;;;;;;253.65;213.60;;;22.30;43.10;;;;;;4827648;54;21040;-31
2021/12/04 17:54:14;;;;;;;252.85;209.90;;;22.30;43.10;;;;;;4819156;54;21486;-29
2021/12/04 17:59:19;;;;;;;249.43;207.55;;;22.30;43.10;;;;;;4824812;54;21404;-27
2021/12/04 18:04:26;;;;;;;252.60;211.57;;;22.20;43.10;;;;;;4811703;54;21482;-27
2021/12/04 18:09:30;;;;;;;251.67;210.37;;;22.30;43.10;;;;;;4821285;54;21075;-32
2021/12/04 18:14:31;;;;;;;242.10;203.57;;;22.30;43.30;;;;;;4819392;54;21063;-35
2021/12/04 18:19:33;;;;;;;241.65;198.85;;;22.30;43.10;;;;;;4814425;54;21562;-33
2021/12/04 18:24:36;;;;;;;239.77;199.52;;;22.30;43.20;;;;;;4807226;54;21538;-33
2021/12/04 18:29:38;;;;;;;236.48;194.85;;;22.30;43.20;;;;;;4817012;54;21537;-26
2021/12/04 18:34:39;;;;;;;241.48;198.18;;;22.30;43.20;;;;;;4794130;58;21466;-33
2021/12/04 18:39:40;;;;;;;241.32;201.45;;;22.20;43.00;;;;;;4805730;54;21534;-25
2021/12/04 18:44:41;;;;;;;241.80;203.40;;;22.20;43.00;;;;;;4795605;54;21015;-31
2021/12/04 18:49:42;;;;;;;243.93;199.40;;;22.20;43.00;;;;;;4807388;54;21067;-30
2021/12/04 18:54:43;;;;;;;242.85;199.70;;;22.30;43.10;;;;;;4794784;58;21015;-29
2021/12/04 18:59:45;;;;;;;234.70;190.20;;;22.20;43.10;;;;;;4812598;54;21150;-29
2021/12/04 19:04:46;;;;;;;241.27;197.52;;;22.20;43.10;;;;;;4817803;54;20996;-31
2021/12/04 19:09:47;;;;;;;231.02;189.73;;;22.20;43.20;;;;;;4805774;54;21569;-36
2021/12/04 19:14:48;;;;;;;236.85;194.13;;;22.20;43.10;;;;;;4814924;54;21059;-27
2021/12/04 19:19:49;;;;;;;237.40;196.55;;;22.20;43.10;;;;;;4818338;54;21071;-26
2021/12/04 19:24:50;;;;;;;235.05;192.70;;;22.20;43.10;;;;;;4809585;54;21051;-29
2021/12/04 19:29:51;;;;;;;237.95;196.90;;;22.20;43.10;;;;;;4831738;54;21131;-26
2021/12/04 19:35:13;;;;;;;234.90;195.57;;;22.20;43.00;;;;;;4808675;54;21016;-31
2021/12/04 19:50:57;;;;;;;236.65;192.60;;;22.20;43.00;;;;;;4794345;54;21043;-33
2021/12/04 19:56:20;;;;;;;229.87;189.45;;;22.20;43.00;;;;;;4795675;58;21513;-31
2021/12/04 20:09:49;;;;;;;236.35;191.90;;;22.20;43.00;;;;;;4813376;54;21028;-30
2021/12/04 20:14:50;;;;;;;232.12;188.93;;;22.20;43.00;;;;;;4811407;54;21047;-34
2021/12/04 20:19:51;;;;;;;234.55;195.32;;;22.20;42.90;;;;;;4800915;54;21075;-31
2021/12/04 20:24:57;;;;;;;235.82;190.07;;;22.20;43.00;;;;;;4820074;54;21028;-33
2021/12/04 20:30:16;;;;;;;231.87;186.85;;;22.20;43.00;;;;;;4794886;58;21509;-27
2021/12/04 21:10:25;;;;;;;226.50;183.90;;;22.20;42.80;;;;;;4796326;54;21099;-28
2021/12/04 22:11:10;;;;;;;222.35;176.43;;;22.10;42.60;;;;;;4813009;54;22069;-31
2021/12/04 22:16:36;;;;;;;220.93;170.03;;;22.10;42.60;;;;;;4821464;54;21364;-28
2021/12/04 23:02:50;;;;;;;208.32;160.25;;;22.10;42.40;;;;;;4810560;54;21059;-28
2021/12/04 23:13:15;;;;;;;203.65;159.30;;;22.10;42.40;;;;;;4796215;54;21518;-31
2021/12/04 23:38:08;;;;;;;205.00;158.98;;;22.10;42.40;;;;;;4794796;54;21537;-28
2021/12/04 23:43:43;;;;;;;199.55;154.20;;;22.10;42.20;;;;;;4806103;54;21552;-33
